createdAt,value
2023-01-23T00:01:14.179Z,103076.72
2023-01-23T00:04:01.826Z,103078.75
2023-01-23T00:06:50.745Z,103070.59
2023-01-23T00:09:37.508Z,103070.94
2023-01-23T00:12:24.463Z,103070.44
2023-01-23T00:15:14.296Z,103068.44
2023-01-23T00:18:00.677Z,103079.53
2023-01-23T00:20:47.503Z,103072.38
2023-01-23T00:23:34.854Z,103063.91
2023-01-23T00:26:23.504Z,103004.34
2023-01-23T00:29:10.024Z,103071.63
2023-01-23T00:31:58.305Z,103065.78
2023-01-23T00:34:46.216Z,103061.94
2023-01-23T00:37:35.434Z,103060.78
2023-01-23T00:40:22.355Z,103062.31
2023-01-23T00:43:08.951Z,103066.38
2023-01-23T00:45:55.933Z,103070.81
2023-01-23T00:48:43.679Z,103067.66
2023-01-23T00:51:30.445Z,103078.00
2023-01-23T00:54:17.279Z,103081.88
2023-01-23T00:57:04.103Z,103084.09
2023-01-23T00:59:50.949Z,103085.94
2023-01-23T01:02:37.816Z,103080.78
2023-01-23T01:05:25.955Z,103092.59
2023-01-23T01:08:12.867Z,103097.13
2023-01-23T01:10:59.539Z,103093.84
2023-01-23T01:13:46.380Z,103091.75
2023-01-23T01:16:33.360Z,103094.03
2023-01-23T01:19:20.155Z,103095.41
2023-01-23T01:22:08.318Z,103048.94
2023-01-23T01:24:55.060Z,103099.53
2023-01-23T01:27:41.738Z,103103.44
2023-01-23T01:30:29.326Z,103101.59
2023-01-23T01:33:15.856Z,103105.22
2023-01-23T01:36:03.126Z,103110.13
2023-01-23T01:38:52.199Z,103111.16
2023-01-23T01:41:38.625Z,103108.81
2023-01-23T01:44:25.819Z,103073.88
2023-01-23T01:47:16.052Z,103112.66
2023-01-23T01:50:05.942Z,103112.66
2023-01-23T01:52:52.957Z,103112.13
2023-01-23T01:55:41.729Z,103122.09
2023-01-23T01:58:29.659Z,103114.25
2023-01-23T02:01:17.994Z,103120.28
2023-01-23T02:04:05.943Z,103123.25
2023-01-23T02:06:53.941Z,103122.19
2023-01-23T02:09:41.339Z,103116.72
2023-01-23T02:12:29.885Z,103126.41
2023-01-23T02:15:19.334Z,103129.56
2023-01-23T02:18:06.057Z,103124.22
2023-01-23T02:20:55.740Z,103128.41
2023-01-23T02:23:57.810Z,103129.16
2023-01-23T02:26:48.682Z,103136.84
2023-01-23T02:29:43.262Z,103128.53
2023-01-23T02:32:29.895Z,103134.91
2023-01-23T02:35:24.421Z,103131.16
2023-01-23T02:38:12.646Z,103137.41
2023-01-23T02:41:03.470Z,103137.00
2023-01-23T02:43:52.690Z,103132.19
2023-01-23T02:46:39.184Z,103138.03
2023-01-23T02:49:26.095Z,103144.88
2023-01-23T02:52:12.706Z,103145.22
2023-01-23T02:54:59.473Z,102999.81
2023-01-23T02:57:46.371Z,103144.25
2023-01-23T03:00:33.491Z,103139.47
2023-01-23T03:03:20.148Z,103144.34
2023-01-23T03:06:07.626Z,103150.72
2023-01-23T03:08:56.189Z,103155.06
2023-01-23T03:11:46.116Z,103000.16
2023-01-23T03:14:32.639Z,103146.25
2023-01-23T03:17:20.754Z,103153.13
2023-01-23T03:20:08.725Z,103157.88
2023-01-23T03:22:55.978Z,103151.91
2023-01-23T03:25:44.734Z,103158.34
2023-01-23T03:28:49.232Z,103166.94
2023-01-23T03:31:36.229Z,103164.75
2023-01-23T03:34:24.856Z,103164.19
2023-01-23T03:37:13.133Z,103175.81
2023-01-23T03:40:20.439Z,103177.59
2023-01-23T03:43:07.745Z,103181.72
2023-01-23T03:45:58.304Z,103189.75
2023-01-23T03:48:45.504Z,103193.47
2023-01-23T03:51:34.096Z,103192.16
2023-01-23T03:54:21.396Z,103187.22
2023-01-23T03:57:09.444Z,103189.19
2023-01-23T04:00:11.283Z,103124.47
2023-01-23T04:03:04.957Z,103193.88
2023-01-23T04:05:57.059Z,103190.66
2023-01-23T04:08:45.685Z,103187.91
2023-01-23T04:11:32.259Z,103193.81
2023-01-23T04:14:19.612Z,103195.38
2023-01-23T04:17:07.930Z,103198.81
2023-01-23T04:19:54.740Z,103193.88
2023-01-23T04:22:41.513Z,103198.97
2023-01-23T04:25:29.603Z,103208.78
2023-01-23T04:28:16.276Z,103212.97
2023-01-23T04:31:04.163Z,103157.06
2023-01-23T04:33:53.519Z,103215.31
2023-01-23T04:36:42.540Z,103224.50
2023-01-23T04:39:29.186Z,103223.75
2023-01-23T04:42:17.313Z,103230.63
2023-01-23T04:45:24.161Z,103223.75
2023-01-23T04:48:43.270Z,103224.03
2023-01-23T04:51:30.005Z,103229.59
2023-01-23T04:54:17.475Z,103225.34
2023-01-23T04:57:04.185Z,103221.50
2023-01-23T04:59:53.480Z,103219.34
2023-01-23T05:02:41.355Z,103218.19
2023-01-23T05:05:28.553Z,103219.06
2023-01-23T05:08:19.394Z,103217.22
2023-01-23T05:11:14.835Z,103220.53
2023-01-23T05:14:01.427Z,103223.81
2023-01-23T05:16:51.582Z,103231.03
2023-01-23T05:19:40.011Z,103237.50
2023-01-23T05:22:26.917Z,103233.91
2023-01-23T05:25:13.914Z,103235.97
2023-01-23T05:28:01.022Z,103237.50
2023-01-23T05:30:48.387Z,103231.38
2023-01-23T05:33:42.925Z,103231.66
2023-01-23T05:36:31.587Z,103236.81
2023-01-23T05:39:18.310Z,103239.78
2023-01-23T05:42:05.444Z,103236.88
2023-01-23T05:45:11.165Z,103236.53
2023-01-23T05:48:01.317Z,103237.75
2023-01-23T05:50:50.369Z,103243.69
2023-01-23T05:53:37.492Z,103197.69
2023-01-23T05:56:24.428Z,103248.97
2023-01-23T05:59:30.008Z,103248.88
2023-01-23T06:02:31.904Z,103258.50
2023-01-23T06:05:24.662Z,103251.69
2023-01-23T06:08:39.280Z,103256.88
2023-01-23T06:11:27.115Z,103266.69
2023-01-23T06:14:14.137Z,103269.53
2023-01-23T06:17:01.117Z,103268.56
2023-01-23T06:19:50.607Z,103272.59
2023-01-23T06:22:38.394Z,103284.41
2023-01-23T06:25:36.498Z,103274.78
2023-01-23T06:28:26.184Z,103283.16
2023-01-23T06:31:13.072Z,103288.22
2023-01-23T06:34:08.570Z,103287.41
2023-01-23T06:37:01.638Z,103286.78
2023-01-23T06:39:48.482Z,103291.56
2023-01-23T06:42:38.200Z,103291.03
2023-01-23T06:45:24.845Z,103287.31
2023-01-23T06:48:11.587Z,103288.13
2023-01-23T06:51:01.128Z,103294.31
2023-01-23T06:53:48.040Z,103285.44
2023-01-23T06:56:36.035Z,103295.06
2023-01-23T06:59:28.057Z,103300.34
2023-01-23T07:02:16.433Z,103300.13
2023-01-23T07:05:06.965Z,103301.94
2023-01-23T07:07:53.606Z,103305.97
2023-01-23T07:10:40.765Z,103306.94
2023-01-23T07:13:27.594Z,103310.22
2023-01-23T07:16:15.720Z,103324.38
2023-01-23T07:19:05.412Z,103324.44
2023-01-23T07:21:55.132Z,103321.09
2023-01-23T07:24:42.000Z,103328.03
2023-01-23T07:27:28.922Z,103327.66
2023-01-23T07:30:19.365Z,103326.47
2023-01-23T07:33:08.403Z,103325.19
2023-01-23T07:35:59.069Z,103331.03
2023-01-23T07:38:46.409Z,103336.53
2023-01-23T07:41:33.092Z,103342.78
2023-01-23T07:44:23.685Z,103339.59
2023-01-23T07:47:10.666Z,103335.19
2023-01-23T07:49:58.762Z,103348.25
2023-01-23T07:52:45.707Z,103341.38
2023-01-23T07:55:32.318Z,103344.44
2023-01-23T07:58:19.158Z,103342.78
2023-01-23T08:01:10.057Z,103338.63
2023-01-23T08:03:56.801Z,103339.88
2023-01-23T08:06:45.025Z,103341.44
2023-01-23T08:09:31.528Z,103330.41
2023-01-23T08:12:18.451Z,103333.91
2023-01-23T08:15:06.142Z,103331.91
2023-01-23T08:17:52.893Z,103328.69
2023-01-23T08:20:40.051Z,103332.88
2023-01-23T08:23:28.948Z,103338.91
2023-01-23T08:26:17.654Z,103334.91
2023-01-23T08:29:04.744Z,103336.44
2023-01-23T08:31:55.082Z,103332.25
2023-01-23T08:34:42.176Z,103347.75
2023-01-23T08:37:28.828Z,103352.31
2023-01-23T08:40:17.475Z,103355.31
2023-01-23T08:43:04.060Z,103357.09
2023-01-23T08:45:52.930Z,103377.41
2023-01-23T08:48:39.862Z,103373.38
2023-01-23T08:51:27.381Z,103376.88
2023-01-23T08:54:13.993Z,103375.75
2023-01-23T08:57:03.010Z,103378.66
2023-01-23T08:59:49.764Z,103392.09
2023-01-23T09:02:36.706Z,103400.00
2023-01-23T09:05:23.490Z,103395.59
2023-01-23T09:08:10.118Z,103399.25
2023-01-23T09:11:01.378Z,103401.72
2023-01-23T09:13:53.680Z,103411.47
2023-01-23T09:16:41.533Z,103395.75
2023-01-23T09:19:28.247Z,103414.53
2023-01-23T09:22:14.997Z,103413.44
2023-01-23T09:25:01.799Z,103426.78
2023-01-23T09:27:48.679Z,103414.47
2023-01-23T09:30:37.147Z,103422.31
2023-01-23T09:33:27.265Z,103429.16
2023-01-23T09:36:13.916Z,103424.03
2023-01-23T09:39:00.743Z,103428.44
2023-01-23T09:41:48.378Z,103427.69
2023-01-23T09:44:39.717Z,103434.25
2023-01-23T09:47:35.619Z,103414.41
2023-01-23T09:50:26.665Z,103434.41
2023-01-23T09:53:16.817Z,103435.50
2023-01-23T09:56:08.475Z,103435.50
2023-01-23T09:59:02.046Z,103442.38
2023-01-23T10:01:48.449Z,103444.16
2023-01-23T10:04:37.407Z,103329.56
2023-01-23T10:07:46.856Z,103441.84
2023-01-23T10:11:01.035Z,103445.66
2023-01-23T10:14:03.593Z,103449.16
2023-01-23T10:17:04.157Z,103457.75
2023-01-23T10:20:14.946Z,103457.75
2023-01-23T10:23:09.727Z,103452.25
2023-01-23T10:25:57.312Z,103445.06
2023-01-23T10:28:45.689Z,103451.53
2023-01-23T10:31:40.918Z,103454.75
2023-01-23T10:34:37.867Z,103444.16
2023-01-23T10:37:40.779Z,103461.19
2023-01-23T10:40:41.559Z,103462.00
2023-01-23T10:43:28.482Z,103459.84
2023-01-23T10:46:17.169Z,103462.81
2023-01-23T10:49:04.113Z,103454.84
2023-01-23T10:51:50.896Z,103463.88
2023-01-23T10:54:46.835Z,103462.31
2023-01-23T10:57:45.287Z,103464.81
2023-01-23T11:00:37.808Z,103469.75
2023-01-23T11:03:33.829Z,103467.53
2023-01-23T11:06:25.993Z,103472.06
2023-01-23T11:09:21.352Z,103468.56
2023-01-23T11:12:17.198Z,103466.31
2023-01-23T11:15:22.214Z,103464.78
2023-01-23T11:18:33.427Z,103463.34
2023-01-23T11:21:24.689Z,103468.31
2023-01-23T11:24:24.841Z,103473.03
2023-01-23T11:27:26.676Z,103466.59
2023-01-23T11:30:37.382Z,103465.50
2023-01-23T11:33:37.516Z,103463.41
2023-01-23T11:36:42.443Z,103455.06
2023-01-23T11:39:52.079Z,103449.81
2023-01-23T11:42:43.156Z,103446.38
2023-01-23T11:45:43.724Z,103440.84
2023-01-23T11:48:48.328Z,103450.09
2023-01-23T11:51:39.230Z,103442.03
2023-01-23T11:54:56.775Z,103447.81
2023-01-23T11:58:01.201Z,103444.97
2023-01-23T12:00:57.871Z,103439.75
2023-01-23T12:04:14.242Z,103429.50
2023-01-23T12:07:21.010Z,103431.94
2023-01-23T12:10:23.549Z,103425.72
2023-01-23T12:13:25.349Z,103424.09
2023-01-23T12:16:21.784Z,103426.50
2023-01-23T12:19:22.978Z,103418.38
2023-01-23T12:22:16.719Z,103425.72
2023-01-23T12:25:20.436Z,103426.16
2023-01-23T12:28:21.642Z,103410.38
2023-01-23T12:31:24.437Z,103420.28
2023-01-23T12:34:23.814Z,103423.41
2023-01-23T12:37:30.793Z,103415.00
2023-01-23T12:40:23.962Z,103425.19
2023-01-23T12:43:15.367Z,103413.81
2023-01-23T12:46:09.639Z,103390.22
2023-01-23T12:49:04.028Z,103415.06
2023-01-23T12:51:57.808Z,103412.53
2023-01-23T12:54:47.526Z,103419.19
2023-01-23T12:58:00.340Z,103416.97
2023-01-23T13:01:06.629Z,103419.81
2023-01-23T13:04:16.375Z,103414.00
2023-01-23T13:07:27.297Z,103370.81
2023-01-23T13:10:25.570Z,103415.94
2023-01-23T13:13:12.027Z,103414.72
2023-01-23T13:16:13.544Z,103421.31
2023-01-23T13:19:19.686Z,103416.50
2023-01-23T13:22:22.405Z,103416.38
2023-01-23T13:25:17.722Z,103366.91
2023-01-23T13:28:44.055Z,103416.91
2023-01-23T13:31:45.435Z,103418.44
2023-01-23T13:34:41.719Z,103418.06
2023-01-23T13:37:51.504Z,103409.28
2023-01-23T13:40:38.251Z,103408.44
2023-01-23T13:43:45.800Z,103406.59
2023-01-23T14:22:57.980Z,103424.13
2023-01-23T14:25:44.961Z,103424.28
2023-01-23T14:28:31.996Z,103434.38
2023-01-23T14:31:24.315Z,103428.47
2023-01-23T14:34:18.858Z,103377.66
2023-01-23T14:37:11.592Z,103352.44
2023-01-23T14:40:09.722Z,103418.97
2023-01-23T14:43:02.190Z,103428.09
2023-01-23T14:45:53.750Z,103428.69
2023-01-23T14:48:44.031Z,103437.00
2023-01-23T14:51:30.655Z,103435.63
2023-01-23T14:54:22.879Z,103443.31
2023-01-23T14:57:12.546Z,103441.19
2023-01-23T15:00:00.362Z,103450.81
2023-01-23T15:02:51.148Z,103458.03
2023-01-23T15:05:39.835Z,103452.81
2023-01-23T15:08:32.690Z,103454.53
2023-01-23T15:11:26.508Z,103451.78
2023-01-23T15:14:26.397Z,103458.13
2023-01-23T15:17:18.571Z,103455.66
2023-01-23T15:20:05.695Z,103394.34
2023-01-23T15:22:52.442Z,103451.94
2023-01-23T15:25:39.816Z,103448.28
2023-01-23T15:28:40.664Z,103454.25
2023-01-23T15:31:32.651Z,103455.75
2023-01-23T15:34:24.062Z,103465.13
2023-01-23T15:37:24.189Z,103471.69
2023-01-23T15:40:17.902Z,103475.13
2023-01-23T15:43:08.462Z,103458.94
2023-01-23T15:45:56.385Z,103477.16
2023-01-23T15:48:43.107Z,103477.00
2023-01-23T15:51:30.103Z,103468.03
2023-01-23T15:54:22.155Z,103469.91
2023-01-23T15:57:13.117Z,103476.03
2023-01-23T16:00:01.381Z,103485.00
2023-01-23T16:02:56.847Z,103475.50
2023-01-23T16:05:44.930Z,103479.84
2023-01-23T16:08:31.656Z,103476.94
2023-01-23T16:11:18.552Z,103413.41
2023-01-23T16:14:05.925Z,103477.97
2023-01-23T16:16:52.945Z,103476.03
2023-01-23T16:19:40.831Z,103489.91
2023-01-23T16:22:29.558Z,103488.50
2023-01-23T16:25:19.847Z,103489.25
2023-01-23T16:28:06.715Z,103488.28
2023-01-23T16:30:53.501Z,103491.63
2023-01-23T16:33:40.022Z,103496.03
2023-01-23T16:36:28.197Z,103501.84
2023-01-23T16:39:19.023Z,103414.03
2023-01-23T16:42:05.871Z,103501.78
2023-01-23T16:44:52.554Z,103505.94
2023-01-23T16:47:39.598Z,103513.38
2023-01-23T16:50:33.302Z,103509.44
2023-01-23T16:53:26.207Z,103512.66
2023-01-23T16:56:22.177Z,103510.22
2023-01-23T16:59:15.399Z,103509.22
2023-01-23T17:02:06.328Z,103508.75
2023-01-23T17:04:53.054Z,103516.97
2023-01-23T17:07:39.859Z,103509.88
2023-01-23T17:10:37.999Z,103505.34
2023-01-23T17:13:28.192Z,103512.59
2023-01-23T17:16:26.504Z,103515.09
2023-01-23T17:19:21.928Z,103507.34
2023-01-23T17:22:18.483Z,103506.81
2023-01-23T17:25:07.678Z,103507.03
2023-01-23T17:28:11.547Z,103508.38
2023-01-23T17:31:01.458Z,103510.53
2023-01-23T17:33:48.785Z,103511.03
2023-01-23T17:36:36.766Z,103518.03
2023-01-23T17:39:23.271Z,103516.41
2023-01-23T17:42:11.344Z,103523.66
2023-01-23T17:44:59.284Z,103520.22
2023-01-23T17:47:49.823Z,103449.28
2023-01-23T17:50:36.839Z,103518.00
2023-01-23T17:53:23.936Z,103525.38
2023-01-23T17:56:11.332Z,103523.28
2023-01-23T17:58:58.101Z,103517.47
2023-01-23T18:01:47.775Z,103522.78
2023-01-23T18:04:34.212Z,103525.94
2023-01-23T18:07:21.192Z,103518.09
2023-01-23T18:10:10.533Z,103515.50
2023-01-23T18:13:09.711Z,103521.03
2023-01-23T18:16:11.381Z,103522.50
2023-01-23T18:19:01.463Z,103512.16
2023-01-23T18:21:49.940Z,103513.66
2023-01-23T18:24:38.482Z,103521.63
2023-01-23T18:27:27.035Z,103519.91
2023-01-23T18:30:35.371Z,103519.91
2023-01-23T18:33:42.340Z,103525.28
2023-01-23T18:36:40.890Z,103525.53
2023-01-23T18:39:49.190Z,103521.13
2023-01-23T18:42:39.418Z,103525.94
2023-01-23T18:45:27.853Z,103524.72
2023-01-23T18:48:24.543Z,103531.41
2023-01-23T18:51:29.220Z,103521.03
2023-01-23T18:54:29.867Z,103516.09
2023-01-23T18:57:33.022Z,103527.16
2023-01-23T19:00:24.818Z,103527.72
2023-01-23T19:03:14.838Z,103525.53
2023-01-23T19:06:01.819Z,103521.53
2023-01-23T19:08:49.238Z,103523.91
2023-01-23T19:11:50.723Z,103527.75
2023-01-23T19:15:02.815Z,103530.44
2023-01-23T19:17:53.170Z,103525.13
2023-01-23T19:20:46.766Z,103519.81
2023-01-23T19:23:40.258Z,103523.50
2023-01-23T19:26:29.701Z,103522.28
2023-01-23T19:29:22.849Z,103525.38
2023-01-23T19:32:11.489Z,103531.47
2023-01-23T19:35:12.486Z,103539.00
2023-01-23T19:38:00.488Z,103536.06
2023-01-23T19:40:48.023Z,103529.81
2023-01-23T19:43:34.787Z,103540.22
2023-01-23T19:46:26.553Z,103546.91
2023-01-23T19:49:13.616Z,103544.69
2023-01-23T19:52:00.547Z,103544.84
2023-01-23T19:54:47.158Z,103548.69
2023-01-23T19:57:33.959Z,103538.00
2023-01-23T20:00:21.519Z,103542.91
2023-01-23T20:03:13.914Z,103548.84
2023-01-23T20:06:00.684Z,103548.84
2023-01-23T20:08:47.345Z,103549.91
2023-01-23T20:11:35.095Z,103547.97
2023-01-23T20:14:22.676Z,103552.13
2023-01-23T20:17:10.995Z,103548.19
2023-01-23T20:20:07.827Z,103552.03
2023-01-23T20:22:59.507Z,103560.03
2023-01-23T20:25:47.770Z,103563.22
2023-01-23T20:28:35.558Z,103564.03
2023-01-23T20:31:23.745Z,103569.78
2023-01-23T20:34:11.228Z,103566.72
2023-01-23T20:37:10.478Z,103575.94
2023-01-23T20:39:59.367Z,103569.06
2023-01-23T20:42:48.092Z,103578.94
2023-01-23T20:45:35.612Z,103582.63
2023-01-23T20:48:22.941Z,103587.13
2023-01-23T20:51:10.933Z,103582.97
2023-01-23T20:54:00.307Z,103554.72
2023-01-23T20:56:47.569Z,103588.28
2023-01-23T20:59:33.747Z,103573.84
2023-01-23T21:02:28.048Z,103586.28
2023-01-23T21:05:14.826Z,103588.13
2023-01-23T21:08:16.186Z,103592.59
2023-01-23T21:11:08.029Z,103597.22
2023-01-23T21:13:54.776Z,103587.22
2023-01-23T21:16:41.661Z,103594.84
2023-01-23T21:19:28.682Z,103588.00
2023-01-23T21:22:17.037Z,103584.25
2023-01-23T21:25:09.075Z,103587.25
2023-01-23T21:28:00.102Z,103591.25
2023-01-23T21:30:47.479Z,103586.78
2023-01-23T21:33:34.359Z,103592.16
2023-01-23T21:36:23.440Z,103546.25
2023-01-23T21:39:11.569Z,103585.38
2023-01-23T21:41:58.304Z,103588.38
2023-01-23T21:44:46.447Z,103585.69
2023-01-23T21:47:33.259Z,103583.59
2023-01-23T21:50:20.042Z,103575.97
2023-01-23T21:53:07.415Z,103575.59
2023-01-23T21:55:54.125Z,103584.22
2023-01-23T21:58:41.221Z,103583.34
2023-01-23T22:01:35.599Z,103586.59
2023-01-23T22:04:23.578Z,103588.31
2023-01-23T22:07:11.986Z,103591.50
2023-01-23T22:10:00.882Z,103588.88
2023-01-23T22:12:47.608Z,103591.81
2023-01-23T22:15:34.254Z,103598.47
2023-01-23T22:18:22.365Z,103595.22
2023-01-23T22:21:13.848Z,103600.69
2023-01-23T22:24:02.600Z,103604.91
2023-01-23T22:26:50.256Z,103601.25
2023-01-23T22:29:43.277Z,103593.28
2023-01-23T22:32:30.768Z,103607.31
2023-01-23T22:35:19.084Z,103599.97
2023-01-23T22:38:09.474Z,103592.41
2023-01-23T22:41:00.367Z,103597.19
2023-01-23T22:43:48.024Z,103598.41
2023-01-23T22:46:34.861Z,103590.44
2023-01-23T22:49:22.103Z,103598.00
2023-01-23T22:52:10.035Z,103597.03
2023-01-23T22:54:56.609Z,103592.22
2023-01-23T22:57:44.001Z,103591.75
2023-01-23T23:00:30.887Z,103592.47
2023-01-23T23:03:17.543Z,103586.69
2023-01-23T23:06:06.967Z,103584.50
2023-01-23T23:08:55.930Z,103580.06
2023-01-23T23:11:42.852Z,103578.53
2023-01-23T23:14:29.657Z,103582.38
2023-01-23T23:17:16.513Z,103581.63
2023-01-23T23:20:03.324Z,103575.66
2023-01-23T23:22:50.125Z,103573.69
2023-01-23T23:25:38.314Z,103573.38
2023-01-23T23:28:26.828Z,103559.66
2023-01-23T23:31:13.328Z,103563.00
2023-01-23T23:34:00.356Z,103566.56
2023-01-23T23:36:46.917Z,103576.72
2023-01-23T23:39:33.609Z,103576.59
2023-01-23T23:42:21.506Z,103576.59
2023-01-23T23:45:09.801Z,103565.47
2023-01-23T23:47:56.666Z,103577.72
2023-01-23T23:50:44.079Z,103571.59
2023-01-23T23:53:31.233Z,103571.28
2023-01-23T23:56:21.861Z,103571.91
2023-01-23T23:59:14.748Z,103573.78
